createdAt,value
2018-06-16T00:00:08.675Z,74.48
2018-06-16T00:01:45.290Z,74.47
2018-06-16T00:03:22.261Z,74.17
2018-06-16T00:05:01.458Z,74.02
2018-06-16T00:06:39.722Z,73.85
2018-06-16T00:08:16.641Z,74.83
2018-06-16T00:09:53.137Z,74.91
2018-06-16T00:11:30.124Z,74.62
2018-06-16T00:13:06.404Z,75.03
2018-06-16T00:14:45.389Z,75.20
2018-06-16T00:16:21.622Z,74.99
2018-06-16T00:17:58.322Z,74.97
2018-06-16T00:19:43.370Z,75.17
2018-06-16T00:21:19.487Z,74.73
2018-06-16T00:22:56.387Z,75.33
2018-06-16T00:24:32.401Z,76.03
2018-06-16T00:26:07.484Z,75.87
2018-06-16T00:27:43.292Z,75.97
2018-06-16T00:29:18.267Z,75.46
2018-06-16T00:30:56.530Z,75.90
2018-06-16T00:32:33.432Z,75.74
2018-06-16T00:34:08.741Z,75.70
2018-06-16T00:35:44.331Z,75.83
2018-06-16T00:37:20.531Z,76.40
2018-06-16T00:38:55.493Z,75.93
2018-06-16T00:40:31.628Z,76.04
2018-06-16T00:42:10.468Z,76.31
2018-06-16T00:43:45.612Z,76.82
2018-06-16T00:45:23.135Z,77.04
2018-06-16T00:46:58.285Z,76.89
2018-06-16T00:48:34.377Z,76.37
2018-06-16T00:50:10.303Z,76.72
2018-06-16T00:51:47.037Z,76.67
2018-06-16T00:53:23.669Z,77.43
2018-06-16T00:54:58.848Z,77.40
2018-06-16T00:56:34.792Z,77.04
2018-06-16T00:58:10.537Z,78.16
2018-06-16T00:59:51.248Z,78.20
2018-06-16T01:01:30.815Z,77.94
2018-06-16T01:03:05.857Z,78.02
2018-06-16T01:04:41.176Z,78.46
2018-06-16T01:06:16.743Z,78.92
2018-06-16T01:07:52.416Z,78.67
2018-06-16T01:09:27.791Z,78.82
2018-06-16T01:11:06.363Z,79.25
2018-06-16T01:12:41.730Z,78.91
2018-06-16T01:14:16.770Z,78.85
2018-06-16T01:15:52.639Z,79.64
2018-06-16T01:17:27.804Z,79.52
2018-06-16T01:19:02.838Z,79.97
2018-06-16T01:20:52.767Z,80.33
2018-06-16T01:22:28.458Z,80.20
2018-06-16T01:24:03.739Z,79.96
2018-06-16T01:25:41.439Z,80.15
2018-06-16T01:27:16.644Z,81.21
2018-06-16T01:28:51.516Z,81.16
2018-06-16T01:30:26.374Z,80.71
2018-06-16T01:32:01.758Z,80.47
2018-06-16T01:33:38.364Z,80.89
2018-06-16T01:35:13.494Z,80.99
2018-06-16T01:36:49.521Z,81.34
2018-06-16T01:38:25.178Z,80.31
2018-06-16T01:40:00.856Z,80.32
2018-06-16T01:41:36.481Z,81.42
2018-06-16T01:43:11.493Z,80.57
2018-06-16T01:44:46.740Z,81.06
2018-06-16T01:46:22.018Z,81.21
2018-06-16T01:47:57.326Z,81.78
2018-06-16T01:49:33.070Z,81.04
2018-06-16T01:51:09.241Z,81.69
2018-06-16T01:52:44.353Z,81.69
2018-06-16T01:54:21.025Z,81.87
2018-06-16T01:55:58.288Z,82.14
2018-06-16T01:59:12.773Z,81.56
2018-06-16T02:00:47.641Z,81.38
2018-06-16T02:02:23.168Z,81.76
2018-06-16T02:03:58.564Z,81.30
2018-06-16T02:05:34.297Z,81.40
2018-06-16T02:07:09.206Z,81.97
2018-06-16T02:08:44.563Z,82.12
2018-06-16T02:10:20.745Z,81.87
2018-06-16T02:11:55.770Z,82.09
2018-06-16T02:13:31.095Z,82.20
2018-06-16T02:15:08.297Z,81.87
2018-06-16T02:16:43.547Z,82.17
2018-06-16T02:18:19.749Z,82.40
2018-06-16T02:19:54.881Z,82.70
2018-06-16T02:21:30.412Z,82.32
2018-06-16T02:23:05.538Z,82.85
2018-06-16T02:24:40.887Z,82.74
2018-06-16T02:26:17.470Z,83.09
2018-06-16T02:27:52.677Z,82.93
2018-06-16T02:29:28.435Z,83.32
2018-06-16T02:31:03.652Z,83.31
2018-06-16T02:32:38.985Z,83.53
2018-06-16T02:34:14.021Z,84.23
2018-06-16T02:35:49.134Z,84.21
2018-06-16T02:37:24.694Z,83.78
2018-06-16T02:38:59.885Z,83.57
2018-06-16T02:40:34.716Z,84.28
2018-06-16T02:42:09.742Z,83.58
2018-06-16T02:43:44.755Z,84.40
2018-06-16T02:45:20.102Z,84.22
2018-06-16T02:46:55.324Z,84.42
2018-06-16T02:48:30.629Z,84.05
2018-06-16T02:50:05.760Z,84.77
2018-06-16T02:51:40.972Z,84.35
2018-06-16T02:53:16.555Z,84.53
2018-06-16T02:54:51.711Z,84.52
2018-06-16T02:56:26.613Z,84.56
2018-06-16T02:58:01.633Z,84.69
2018-06-16T02:59:37.315Z,84.94
2018-06-16T03:01:12.706Z,84.26
2018-06-16T03:02:47.789Z,85.27
2018-06-16T03:04:22.974Z,84.47
2018-06-16T03:05:58.053Z,84.49
2018-06-16T03:07:33.179Z,85.12
2018-06-16T03:09:09.779Z,85.17
2018-06-16T03:10:44.653Z,85.20
2018-06-16T03:12:19.488Z,84.72
2018-06-16T03:13:54.599Z,84.94
2018-06-16T03:15:29.790Z,85.08
2018-06-16T03:17:05.199Z,84.80
2018-06-16T03:18:40.058Z,84.82
2018-06-16T03:20:15.053Z,85.01
2018-06-16T03:21:49.941Z,85.13
2018-06-16T03:23:24.893Z,85.25
2018-06-16T03:25:00.445Z,84.87
2018-06-16T03:26:36.260Z,85.54
2018-06-16T03:28:13.687Z,84.90
2018-06-16T03:29:48.516Z,85.07
2018-06-16T03:31:24.327Z,85.08
2018-06-16T03:32:59.887Z,85.15
2018-06-16T03:34:35.071Z,84.83
2018-06-16T03:36:12.241Z,85.36
2018-06-16T03:37:48.413Z,85.24
2018-06-16T03:39:26.370Z,84.88
2018-06-16T03:41:03.149Z,84.44
2018-06-16T03:42:38.041Z,84.34
2018-06-16T03:44:13.196Z,84.27
2018-06-16T03:45:50.770Z,84.67
2018-06-16T03:47:25.850Z,84.60
2018-06-16T03:49:01.400Z,84.79
2018-06-16T03:50:36.594Z,84.69
2018-06-16T03:52:12.061Z,84.59
2018-06-16T03:53:47.553Z,84.23
2018-06-16T03:55:26.712Z,84.45
2018-06-16T03:57:02.211Z,84.33
2018-06-16T03:58:37.289Z,84.55
2018-06-16T04:00:17.647Z,84.64
2018-06-16T04:01:52.850Z,84.40
2018-06-16T04:03:27.719Z,84.09
2018-06-16T04:05:04.229Z,83.78
2018-06-16T04:06:39.348Z,84.05
2018-06-16T04:08:14.618Z,83.83
2018-06-16T04:09:49.837Z,83.75
2018-06-16T04:11:24.851Z,84.39
2018-06-16T04:14:47.255Z,84.26
2018-06-16T04:16:22.285Z,84.31
2018-06-16T04:19:40.509Z,83.75
2018-06-16T04:21:15.525Z,83.85
2018-06-16T04:22:50.710Z,83.36
2018-06-16T04:24:25.816Z,83.70
2018-06-16T04:26:00.920Z,83.42
2018-06-16T04:27:36.199Z,83.69
2018-06-16T04:29:12.159Z,83.09
2018-06-16T04:30:47.617Z,83.52
2018-06-16T04:32:22.817Z,83.15
2018-06-16T04:33:58.346Z,83.25
2018-06-16T04:35:34.138Z,82.19
2018-06-16T04:37:09.634Z,81.93
2018-06-16T04:38:45.407Z,82.27
2018-06-16T04:40:20.759Z,81.91
2018-06-16T04:41:58.154Z,81.80
2018-06-16T04:43:37.061Z,81.79
2018-06-16T04:45:20.050Z,81.20
2018-06-16T04:49:33.942Z,81.11
2018-06-16T04:51:09.577Z,81.72
2018-06-16T04:52:45.772Z,81.22
2018-06-16T04:54:21.102Z,81.13
2018-06-16T04:55:56.342Z,80.25
2018-06-16T04:57:31.515Z,79.94
2018-06-16T04:59:07.369Z,79.82
2018-06-16T05:00:43.627Z,80.02
2018-06-16T05:02:18.900Z,79.62
2018-06-16T05:03:54.253Z,79.99
2018-06-16T05:05:29.385Z,79.12
2018-06-16T05:07:04.857Z,78.42
2018-06-16T05:08:40.965Z,79.20
2018-06-16T05:10:16.922Z,79.57
2018-06-16T05:11:52.885Z,77.93
2018-06-16T05:13:29.085Z,78.96
2018-06-16T05:15:07.878Z,77.88
2018-06-16T05:16:44.532Z,78.96
2018-06-16T05:18:19.778Z,78.11
2018-06-16T05:19:55.260Z,78.15
2018-06-16T05:21:30.717Z,76.84
2018-06-16T05:23:06.025Z,77.57
2018-06-16T05:24:41.282Z,77.94
2018-06-16T05:26:16.427Z,77.35
2018-06-16T05:27:52.061Z,77.25
2018-06-16T05:29:27.375Z,76.57
2018-06-16T05:31:03.197Z,76.38
2018-06-16T05:32:39.018Z,74.40
2018-06-16T05:34:14.399Z,76.09
2018-06-16T05:35:49.569Z,75.54
2018-06-16T05:37:24.934Z,75.63
2018-06-16T05:39:00.683Z,74.64
2018-06-16T05:40:36.242Z,74.48
2018-06-16T05:42:12.720Z,74.12
2018-06-16T05:43:47.729Z,74.24
2018-06-16T05:45:24.444Z,73.93
2018-06-16T05:47:00.536Z,72.54
2018-06-16T05:48:40.602Z,73.37
2018-06-16T05:50:15.963Z,72.14
2018-06-16T05:51:52.671Z,71.36
2018-06-16T05:53:28.523Z,71.81
2018-06-16T05:55:03.750Z,71.78
2018-06-16T05:56:39.768Z,70.64
2018-06-16T05:58:15.298Z,70.15
2018-06-16T05:59:50.859Z,70.19
2018-06-16T06:01:26.546Z,69.16
2018-06-16T06:03:01.841Z,68.76
2018-06-16T06:04:37.404Z,69.20
2018-06-16T06:06:12.544Z,67.85
2018-06-16T06:07:50.537Z,67.71
2018-06-16T06:09:27.283Z,68.03
2018-06-16T06:11:03.193Z,67.67
2018-06-16T06:12:38.996Z,67.54
2018-06-16T06:14:14.362Z,65.71
2018-06-16T06:15:49.494Z,66.23
2018-06-16T06:17:27.331Z,65.60
2018-06-16T06:19:02.269Z,65.31
2018-06-16T06:20:37.581Z,65.31
2018-06-16T06:22:13.604Z,64.51
2018-06-16T06:23:48.721Z,65.04
2018-06-16T06:25:24.495Z,64.77
2018-06-16T06:27:02.447Z,66.09
2018-06-16T06:28:37.670Z,65.14
2018-06-16T06:30:14.847Z,64.37
2018-06-16T06:31:50.369Z,64.44
2018-06-16T06:33:25.919Z,64.42
2018-06-16T06:35:01.182Z,64.79
2018-06-16T06:36:37.721Z,64.12
2018-06-16T06:38:12.782Z,64.59
2018-06-16T06:39:48.367Z,65.09
2018-06-16T06:41:23.350Z,65.32
2018-06-16T06:42:58.698Z,66.00
2018-06-16T06:44:37.132Z,66.20
2018-06-16T06:46:12.195Z,66.02
2018-06-16T06:47:47.951Z,64.76
2018-06-16T06:49:23.933Z,64.46
2018-06-16T06:50:59.377Z,65.74
2018-06-16T06:52:34.309Z,64.31
2018-06-16T06:54:09.480Z,64.59
2018-06-16T06:55:44.853Z,63.19
2018-06-16T06:57:19.776Z,63.40
2018-06-16T06:58:55.732Z,61.28
2018-06-16T07:00:30.795Z,61.74
2018-06-16T07:02:08.380Z,59.23
2018-06-16T07:03:44.135Z,58.98
2018-06-16T07:05:19.663Z,59.99
2018-06-16T07:06:55.610Z,59.53
2018-06-16T07:08:30.914Z,59.45
2018-06-16T07:10:05.962Z,59.48
2018-06-16T07:11:41.473Z,58.96
2018-06-16T07:13:16.427Z,58.83
2018-06-16T07:14:51.393Z,59.73
2018-06-16T07:16:26.428Z,58.46
2018-06-16T07:18:02.484Z,60.08
2018-06-16T07:19:37.802Z,57.75
2018-06-16T07:21:13.401Z,57.63
2018-06-16T07:22:49.489Z,58.42
2018-06-16T07:24:25.267Z,58.25
2018-06-16T07:26:05.354Z,59.09
2018-06-16T07:27:40.780Z,57.71
2018-06-16T07:29:16.833Z,58.70
2018-06-16T07:30:53.512Z,56.10
2018-06-16T07:32:57.693Z,57.39
2018-06-16T07:34:34.116Z,57.00
2018-06-16T07:36:11.139Z,56.00
2018-06-16T07:37:48.520Z,54.10
2018-06-16T07:39:26.919Z,54.63
2018-06-16T07:41:03.952Z,55.81
2018-06-16T07:42:39.380Z,56.82
2018-06-16T07:44:15.339Z,52.82
2018-06-16T07:45:51.234Z,54.16
2018-06-16T07:47:27.147Z,53.59
2018-06-16T07:49:04.342Z,52.95
2018-06-16T07:50:40.758Z,53.91
2018-06-16T07:52:17.701Z,53.16
2018-06-16T07:53:53.976Z,54.17
2018-06-16T07:55:31.246Z,53.88
2018-06-16T07:57:06.380Z,52.34
2018-06-16T07:58:42.700Z,52.74
2018-06-16T08:00:18.262Z,54.73
2018-06-16T08:01:53.924Z,51.95
2018-06-16T08:03:29.410Z,51.10
2018-06-16T08:05:04.646Z,52.38
2018-06-16T08:06:40.140Z,52.99
2018-06-16T08:08:16.061Z,53.69
2018-06-16T08:09:51.975Z,53.79
2018-06-16T08:11:27.347Z,51.88
2018-06-16T08:13:04.133Z,54.13
2018-06-16T08:14:40.585Z,52.89
2018-06-16T08:16:19.295Z,52.67
2018-06-16T08:19:34.312Z,52.25
2018-06-16T08:21:13.385Z,52.06
2018-06-16T08:22:49.388Z,49.64
2018-06-16T08:24:25.778Z,49.23
2018-06-16T08:26:02.508Z,50.95
2018-06-16T08:27:40.670Z,49.84
2018-06-16T08:29:16.926Z,52.03
2018-06-16T08:30:53.111Z,50.93
2018-06-16T08:32:28.513Z,51.51
2018-06-16T08:34:05.107Z,50.21
2018-06-16T08:35:41.429Z,51.90
2018-06-16T08:37:17.705Z,51.16
2018-06-16T08:38:53.328Z,51.45
2018-06-16T08:41:44.789Z,51.64
2018-06-16T08:43:21.324Z,52.26
2018-06-16T08:45:02.457Z,48.92
2018-06-16T08:46:38.763Z,51.24
2018-06-16T08:48:16.082Z,49.18
2018-06-16T08:49:52.675Z,50.52
2018-06-16T08:51:31.835Z,49.38
2018-06-16T08:53:08.102Z,50.22
2018-06-16T08:54:45.672Z,50.37
2018-06-16T08:56:23.913Z,48.76
2018-06-16T08:58:08.318Z,51.32
2018-06-16T08:59:43.635Z,50.73
2018-06-16T09:01:21.852Z,50.22
2018-06-16T09:02:58.465Z,48.00
2018-06-16T09:04:34.176Z,49.93
2018-06-16T09:06:10.018Z,47.35
2018-06-16T09:07:48.090Z,47.90
2018-06-16T09:09:25.292Z,47.57
2018-06-16T09:11:03.823Z,50.08
2018-06-16T09:12:40.311Z,46.62
2018-06-16T09:14:16.581Z,44.86
2018-06-16T09:15:53.094Z,43.91
2018-06-16T09:17:29.748Z,46.65
2018-06-16T09:19:06.107Z,42.75
2018-06-16T09:20:43.508Z,47.33
2018-06-16T09:22:20.652Z,44.96
2018-06-16T09:23:58.368Z,45.11
2018-06-16T09:25:34.604Z,43.94
2018-06-16T09:27:13.850Z,42.72
2018-06-16T09:28:49.849Z,43.30
2018-06-16T09:30:26.360Z,46.53
2018-06-16T09:32:09.775Z,45.19
2018-06-16T09:33:46.666Z,43.74
2018-06-16T09:35:21.736Z,45.79
2018-06-16T09:36:59.032Z,44.33
2018-06-16T09:38:36.706Z,47.38
2018-06-16T09:40:13.025Z,43.38
2018-06-16T09:41:50.577Z,45.73
2018-06-16T09:43:27.761Z,44.84
2018-06-16T09:45:08.563Z,46.01
2018-06-16T09:46:47.815Z,45.58
2018-06-16T09:48:24.733Z,47.67
2018-06-16T09:50:00.394Z,43.64
2018-06-16T09:51:35.635Z,44.91
2018-06-16T09:53:12.363Z,43.97
2018-06-16T09:54:53.947Z,45.50
2018-06-16T09:56:30.240Z,48.02
2018-06-16T09:58:08.477Z,48.31
2018-06-16T09:59:49.194Z,46.94
2018-06-16T10:01:26.543Z,45.25
2018-06-16T10:03:04.730Z,45.24
2018-06-16T10:04:41.484Z,46.11
2018-06-16T10:06:19.820Z,46.80
2018-06-16T10:07:57.432Z,46.91
2018-06-16T10:09:35.068Z,47.82
2018-06-16T10:11:11.355Z,44.80
2018-06-16T10:12:47.140Z,44.89
2018-06-16T10:14:22.910Z,45.03
2018-06-16T10:15:58.854Z,47.11
2018-06-16T10:17:35.936Z,48.48
2018-06-16T10:19:11.283Z,47.43
2018-06-16T10:20:47.330Z,47.03
2018-06-16T10:22:23.853Z,47.67
2018-06-16T10:24:01.562Z,46.95
2018-06-16T10:25:36.790Z,44.04
2018-06-16T10:27:13.152Z,41.36
2018-06-16T10:28:50.700Z,40.35
2018-06-16T10:30:26.463Z,39.42
2018-06-16T10:32:01.620Z,40.58
2018-06-16T10:33:36.452Z,41.62
2018-06-16T10:35:16.394Z,43.55
2018-06-16T10:36:52.255Z,43.32
2018-06-16T10:38:29.348Z,43.82
2018-06-16T10:40:07.183Z,41.13
2018-06-16T10:41:43.819Z,42.91
2018-06-16T10:43:20.738Z,45.59
2018-06-16T10:44:57.547Z,46.54
2018-06-16T10:46:42.113Z,44.44
2018-06-16T10:48:17.916Z,45.77
2018-06-16T10:49:55.404Z,46.72
2018-06-16T10:51:31.270Z,46.29
2018-06-16T10:53:08.546Z,45.50
2018-06-16T10:54:46.847Z,44.60
2018-06-16T10:56:23.341Z,46.27
2018-06-16T10:58:03.172Z,49.60
2018-06-16T10:59:39.314Z,47.83
2018-06-16T11:01:17.848Z,50.12
2018-06-16T11:02:56.677Z,47.41
2018-06-16T11:04:35.503Z,47.73
2018-06-16T11:06:14.609Z,46.90
2018-06-16T11:07:53.094Z,46.65
2018-06-16T11:09:29.209Z,46.09
2018-06-16T11:11:08.190Z,45.76
2018-06-16T11:12:48.281Z,47.06
2018-06-16T11:14:25.235Z,46.08
2018-06-16T11:16:02.671Z,46.83
2018-06-16T11:17:40.807Z,43.52
2018-06-16T11:19:16.621Z,42.46
2018-06-16T11:20:53.850Z,42.61
2018-06-16T11:22:30.559Z,43.05
2018-06-16T11:24:08.502Z,41.45
2018-06-16T11:25:48.102Z,41.52
2018-06-16T11:27:27.759Z,40.98
2018-06-16T11:29:05.841Z,42.41
2018-06-16T11:30:42.714Z,41.77
2018-06-16T11:32:18.278Z,44.19
2018-06-16T11:33:55.639Z,43.53
2018-06-16T11:35:30.678Z,41.40
2018-06-16T11:37:06.622Z,40.69
2018-06-16T11:38:43.540Z,40.44
2018-06-16T11:40:19.229Z,42.00
2018-06-16T11:41:55.526Z,44.60
2018-06-16T11:43:32.924Z,38.82
2018-06-16T11:45:08.492Z,41.13
2018-06-16T11:46:45.320Z,40.09
2018-06-16T11:48:21.053Z,41.28
2018-06-16T11:49:57.905Z,40.24
2018-06-16T11:51:34.242Z,42.74
2018-06-16T11:53:11.299Z,40.01
2018-06-16T11:54:48.108Z,40.89
2018-06-16T11:56:24.338Z,39.42
2018-06-16T11:58:00.706Z,40.15
2018-06-16T11:59:37.268Z,40.99
2018-06-16T12:01:12.485Z,42.17
2018-06-16T12:02:49.326Z,40.19
2018-06-16T12:04:25.428Z,41.10
2018-06-16T12:06:01.060Z,38.48
2018-06-16T12:07:36.855Z,39.68
2018-06-16T12:09:13.458Z,41.15
2018-06-16T12:10:49.954Z,40.67
2018-06-16T12:12:27.725Z,42.17
2018-06-16T12:14:04.463Z,40.54
2018-06-16T12:15:41.753Z,42.24
2018-06-16T12:17:18.495Z,40.96
2018-06-16T12:18:58.338Z,43.07
2018-06-16T12:20:36.057Z,39.23
2018-06-16T12:22:13.823Z,42.45
2018-06-16T12:23:49.267Z,39.50
2018-06-16T12:25:25.820Z,40.66
2018-06-16T12:27:02.471Z,41.01
2018-06-16T12:28:39.472Z,38.63
2018-06-16T12:30:16.828Z,37.64
2018-06-16T12:31:52.480Z,39.58
2018-06-16T12:33:27.866Z,40.38
2018-06-16T12:35:05.580Z,41.05
2018-06-16T12:36:41.699Z,37.99
2018-06-16T12:38:21.145Z,38.02
2018-06-16T12:39:58.571Z,39.84
2018-06-16T12:41:36.073Z,38.89
2018-06-16T12:43:11.056Z,38.78
2018-06-16T12:44:46.821Z,38.95
2018-06-16T12:46:22.837Z,39.71
2018-06-16T12:48:05.233Z,39.06
2018-06-16T12:49:42.467Z,42.22
2018-06-16T12:51:21.356Z,41.95
2018-06-16T12:52:57.202Z,41.28
2018-06-16T12:54:35.245Z,41.10
2018-06-16T12:56:11.766Z,38.17
2018-06-16T12:57:48.245Z,39.07
2018-06-16T12:59:25.912Z,40.53
2018-06-16T13:01:05.653Z,40.58
2018-06-16T13:02:41.622Z,39.21
2018-06-16T13:04:21.602Z,41.48
2018-06-16T13:05:58.375Z,41.31
2018-06-16T13:07:33.639Z,39.84
2018-06-16T13:09:09.102Z,42.05
2018-06-16T13:10:46.054Z,43.29
2018-06-16T13:12:26.916Z,41.29
2018-06-16T13:14:03.029Z,42.20
2018-06-16T13:15:39.282Z,42.61
2018-06-16T13:17:26.583Z,41.52
2018-06-16T13:19:05.010Z,43.28
2018-06-16T13:20:40.208Z,44.17
2018-06-16T13:22:15.643Z,41.40
2018-06-16T13:23:52.474Z,43.04
2018-06-16T13:25:36.537Z,44.74
2018-06-16T13:27:11.885Z,40.77
2018-06-16T13:28:47.841Z,41.99
2018-06-16T13:30:24.412Z,41.80
2018-06-16T13:32:00.594Z,40.71
2018-06-16T13:33:37.972Z,41.05
2018-06-16T13:35:14.144Z,39.22
2018-06-16T13:36:49.980Z,39.88
2018-06-16T13:38:25.624Z,39.18
2018-06-16T13:40:04.626Z,37.46
2018-06-16T13:41:42.970Z,38.71
2018-06-16T13:43:20.662Z,37.41
2018-06-16T13:44:57.475Z,37.32
2018-06-16T13:46:36.647Z,39.43
2018-06-16T13:48:12.796Z,37.50
2018-06-16T13:49:48.277Z,36.16
2018-06-16T13:51:23.814Z,36.85
2018-06-16T13:52:59.291Z,39.39
2018-06-16T13:54:35.395Z,38.71
2018-06-16T13:56:11.928Z,38.64
2018-06-16T13:57:47.102Z,39.39
2018-06-16T13:59:23.623Z,39.97
2018-06-16T14:00:59.159Z,40.83
2018-06-16T14:02:39.153Z,42.20
2018-06-16T14:04:14.598Z,40.52
2018-06-16T14:05:50.214Z,41.04
2018-06-16T14:07:27.513Z,41.33
2018-06-16T14:09:33.433Z,42.99
2018-06-16T14:11:14.311Z,42.10
2018-06-16T14:12:55.861Z,41.75
2018-06-16T14:14:37.839Z,38.62
2018-06-16T14:16:16.111Z,39.39
2018-06-16T14:17:53.414Z,40.04
2018-06-16T14:19:31.685Z,40.46
2018-06-16T14:21:11.155Z,42.92
2018-06-16T14:22:54.404Z,40.22
2018-06-16T14:26:13.826Z,38.11
2018-06-16T14:27:55.313Z,40.29
2018-06-16T14:29:33.669Z,39.50
2018-06-16T14:31:30.376Z,39.42
2018-06-16T14:33:15.063Z,41.06
2018-06-16T14:34:56.644Z,37.39
2018-06-16T14:36:32.216Z,37.58
2018-06-16T14:38:07.938Z,39.79
2018-06-16T14:39:46.352Z,38.23
2018-06-16T14:41:22.458Z,40.39
2018-06-16T14:43:00.120Z,39.52
2018-06-16T14:44:38.635Z,40.20
2018-06-16T14:46:17.368Z,41.79
2018-06-16T14:47:54.231Z,41.42
2018-06-16T14:49:30.626Z,41.64
2018-06-16T14:51:07.018Z,42.21
2018-06-16T14:52:43.916Z,43.22
2018-06-16T14:54:19.094Z,39.52
2018-06-16T14:55:54.917Z,41.43
2018-06-16T14:57:34.250Z,40.84
2018-06-16T14:59:20.203Z,41.62
2018-06-16T15:00:58.400Z,43.36
2018-06-16T15:02:34.569Z,41.08
2018-06-16T15:04:11.331Z,43.36
2018-06-16T15:05:49.881Z,42.49
2018-06-16T15:07:25.732Z,42.12
2018-06-16T15:09:01.436Z,44.65
2018-06-16T15:10:36.692Z,43.84
2018-06-16T15:12:14.760Z,43.24
2018-06-16T15:13:51.070Z,42.93
2018-06-16T15:15:31.695Z,43.18
2018-06-16T15:17:10.569Z,42.85
2018-06-16T15:18:46.527Z,45.30
2018-06-16T15:20:28.762Z,43.61
2018-06-16T15:22:08.190Z,44.83
2018-06-16T15:23:44.340Z,44.69
2018-06-16T15:25:22.585Z,44.51
2018-06-16T15:26:59.769Z,40.87
2018-06-16T15:28:35.736Z,42.86
2018-06-16T15:30:15.289Z,43.41
2018-06-16T15:31:51.124Z,40.92
2018-06-16T15:33:28.530Z,42.98
2018-06-16T15:35:04.388Z,43.03
2018-06-16T15:36:41.097Z,44.11
2018-06-16T15:38:19.071Z,44.88
2018-06-16T15:39:54.780Z,43.20
2018-06-16T15:41:33.328Z,43.83
2018-06-16T15:45:03.216Z,45.46
2018-06-16T15:46:40.264Z,44.62
2018-06-16T15:48:16.446Z,45.73
2018-06-16T15:49:52.495Z,45.34
2018-06-16T15:51:31.511Z,44.43
2018-06-16T15:53:10.545Z,40.55
2018-06-16T15:54:46.998Z,43.33
2018-06-16T15:56:23.970Z,39.33
2018-06-16T15:57:59.763Z,41.21
2018-06-16T15:59:38.535Z,41.54
2018-06-16T16:01:20.571Z,38.64
2018-06-16T16:02:56.467Z,37.72
2018-06-16T16:04:34.364Z,39.41
2018-06-16T16:06:10.153Z,40.85
2018-06-16T16:07:47.326Z,38.78
2018-06-16T16:09:25.456Z,39.65
2018-06-16T16:11:03.455Z,38.01
2018-06-16T16:12:42.308Z,37.67
2018-06-16T16:14:21.750Z,39.45
2018-06-16T16:16:03.283Z,39.26
2018-06-16T16:17:42.061Z,40.07
2018-06-16T16:19:17.614Z,40.79
2018-06-16T16:20:52.825Z,40.12
2018-06-16T16:22:35.645Z,41.21
2018-06-16T16:24:12.255Z,40.26
2018-06-16T16:25:47.418Z,41.70
2018-06-16T16:27:27.180Z,44.04
2018-06-16T16:29:02.330Z,43.56
2018-06-16T16:30:38.810Z,42.79
2018-06-16T16:32:16.349Z,43.05
2018-06-16T16:33:54.432Z,45.19
2018-06-16T16:35:31.889Z,43.83
2018-06-16T16:37:08.236Z,42.37
2018-06-16T16:38:44.873Z,45.61
2018-06-16T16:40:20.799Z,43.94
2018-06-16T16:42:00.429Z,42.90
2018-06-16T16:43:38.006Z,43.67
2018-06-16T16:45:19.388Z,44.03
2018-06-16T16:46:55.322Z,45.13
2018-06-16T16:48:31.661Z,45.27
2018-06-16T16:50:08.034Z,44.72
2018-06-16T16:51:44.412Z,44.76
2018-06-16T16:53:19.683Z,45.53
2018-06-16T16:54:57.029Z,44.79
2018-06-16T16:56:32.463Z,45.97
2018-06-16T16:58:12.181Z,48.31
2018-06-16T16:59:47.710Z,46.56
2018-06-16T17:01:24.667Z,49.46
2018-06-16T17:03:04.243Z,47.32
2018-06-16T17:04:46.584Z,47.67
2018-06-16T17:06:22.427Z,47.76
2018-06-16T17:07:57.666Z,46.63
2018-06-16T17:09:32.624Z,47.20
2018-06-16T17:11:11.406Z,46.55
2018-06-16T17:12:47.825Z,46.51
2018-06-16T17:14:25.512Z,46.89
2018-06-16T17:16:03.062Z,48.58
2018-06-16T17:17:39.560Z,47.82
2018-06-16T17:19:16.360Z,47.53
2018-06-16T17:20:53.213Z,48.07
2018-06-16T17:22:28.939Z,47.15
2018-06-16T17:24:08.310Z,48.31
2018-06-16T17:25:43.585Z,48.16
2018-06-16T17:27:20.445Z,49.22
2018-06-16T17:28:57.464Z,48.33
2018-06-16T17:30:33.006Z,49.48
2018-06-16T17:32:10.958Z,50.49
2018-06-16T17:33:46.484Z,49.16
2018-06-16T17:35:23.039Z,50.55
2018-06-16T17:37:02.806Z,51.41
2018-06-16T17:38:40.852Z,53.09
2018-06-16T17:40:21.169Z,54.06
2018-06-16T17:42:07.012Z,56.37
2018-06-16T17:43:52.608Z,58.33
2018-06-16T17:45:30.467Z,58.16
2018-06-16T17:47:09.920Z,58.90
2018-06-16T17:48:50.423Z,59.91
2018-06-16T17:50:32.213Z,60.22
2018-06-16T17:52:09.414Z,61.16
2018-06-16T17:53:49.114Z,61.09
2018-06-16T17:55:26.740Z,61.85
2018-06-16T17:57:11.450Z,61.70
2018-06-16T17:58:48.811Z,62.65
2018-06-16T18:00:26.338Z,61.87
2018-06-16T18:02:04.221Z,62.18
2018-06-16T18:03:45.979Z,63.02
2018-06-16T18:05:36.273Z,62.64
2018-06-16T18:07:13.495Z,62.98
2018-06-16T18:08:49.043Z,62.91
2018-06-16T18:10:25.871Z,62.44
2018-06-16T18:12:05.194Z,64.30
2018-06-16T18:13:42.479Z,63.08
2018-06-16T18:15:22.601Z,63.87
2018-06-16T18:16:59.135Z,63.40
2018-06-16T18:18:36.977Z,63.43
2018-06-16T18:20:13.780Z,63.04
2018-06-16T18:22:00.524Z,63.43
2018-06-16T18:24:01.402Z,64.27
2018-06-16T18:25:38.385Z,64.38
2018-06-16T18:27:14.046Z,63.87
2018-06-16T18:28:50.568Z,64.74
2018-06-16T18:30:26.853Z,64.49
2018-06-16T18:32:05.514Z,64.73
2018-06-16T18:33:43.468Z,65.13
2018-06-16T18:35:19.883Z,65.31
2018-06-16T18:36:57.833Z,65.03
2018-06-16T18:38:38.127Z,64.91
2018-06-16T18:40:17.380Z,64.59
2018-06-16T18:42:11.340Z,64.72
2018-06-16T18:43:53.282Z,64.83
2018-06-16T18:45:37.173Z,64.97
2018-06-16T18:47:15.319Z,66.18
2018-06-16T18:48:53.633Z,66.09
2018-06-16T18:50:36.706Z,65.77
2018-06-16T18:54:09.196Z,65.95
2018-06-16T18:55:47.743Z,66.84
2018-06-16T18:57:29.009Z,66.95
2018-06-16T18:59:10.698Z,66.34
2018-06-16T19:00:48.430Z,66.75
2018-06-16T19:02:28.709Z,66.96
2018-06-16T19:04:10.364Z,66.99
2018-06-16T19:05:47.388Z,66.86
2018-06-16T19:07:24.171Z,67.10
2018-06-16T19:09:03.548Z,67.41
2018-06-16T19:10:44.747Z,68.01
2018-06-16T19:12:24.864Z,68.27
2018-06-16T19:14:03.644Z,67.53
2018-06-16T19:15:46.975Z,68.44
2018-06-16T19:17:35.813Z,68.66
2018-06-16T19:19:17.532Z,68.55
2018-06-16T19:20:57.745Z,68.71
2018-06-16T19:22:36.205Z,68.70
2018-06-16T19:24:19.783Z,69.64
2018-06-16T19:25:59.607Z,69.72
2018-06-16T19:27:41.516Z,71.03
2018-06-16T19:29:54.801Z,70.89
2018-06-16T19:31:40.071Z,71.81
2018-06-16T19:33:18.727Z,72.40
2018-06-16T19:34:58.309Z,73.16
2018-06-16T19:36:40.275Z,73.06
2018-06-16T19:38:19.431Z,74.54
2018-06-16T19:39:58.436Z,75.31
2018-06-16T19:41:36.341Z,75.74
2018-06-16T19:43:18.063Z,75.61
2018-06-16T19:44:54.814Z,76.02
2018-06-16T19:48:21.843Z,76.44
2018-06-16T19:50:02.410Z,77.41
2018-06-16T19:51:44.825Z,77.41
2018-06-16T19:55:25.822Z,78.80
2018-06-16T19:57:30.115Z,79.03
2018-06-16T19:59:20.760Z,79.21
2018-06-16T20:01:03.502Z,79.84
2018-06-16T20:02:51.385Z,80.33
2018-06-16T20:04:47.375Z,81.10
2018-06-16T20:06:29.564Z,81.37
2018-06-16T20:08:10.131Z,81.89
2018-06-16T20:09:56.313Z,81.98
2018-06-16T20:11:33.295Z,81.91
2018-06-16T20:13:16.206Z,82.46
2018-06-16T20:14:55.100Z,81.42
2018-06-16T20:16:31.252Z,82.86
2018-06-16T20:18:10.102Z,82.65
2018-06-16T20:20:50.814Z,82.33
2018-06-16T20:22:31.415Z,83.01
2018-06-16T20:24:12.809Z,83.07
2018-06-16T20:25:50.313Z,82.90
2018-06-16T20:27:30.414Z,82.93
2018-06-16T20:29:12.204Z,83.04
2018-06-16T20:30:49.756Z,83.51
2018-06-16T20:32:41.553Z,83.11
2018-06-16T20:34:19.290Z,83.17
2018-06-16T20:35:55.606Z,82.78
2018-06-16T20:37:35.859Z,83.30
2018-06-16T20:39:16.612Z,82.96
2018-06-16T20:40:57.980Z,82.98
2018-06-16T20:42:37.097Z,83.60
2018-06-16T20:44:18.567Z,83.67
2018-06-16T20:45:59.937Z,83.64
2018-06-16T20:47:40.256Z,83.39
2018-06-16T20:49:16.489Z,83.04
2018-06-16T20:50:53.725Z,82.60
2018-06-16T20:52:29.390Z,82.51
2018-06-16T20:54:13.065Z,82.05
2018-06-16T20:55:53.561Z,82.59
2018-06-16T20:57:31.866Z,82.96
2018-06-16T20:59:09.761Z,82.46
2018-06-16T21:00:48.623Z,83.07
2018-06-16T21:02:28.963Z,82.78
2018-06-16T21:04:04.999Z,83.62
2018-06-16T21:05:40.647Z,83.25
2018-06-16T21:07:16.765Z,83.38
2018-06-16T21:08:54.697Z,83.87
2018-06-16T21:10:32.973Z,83.75
2018-06-16T21:12:08.972Z,83.47
2018-06-16T21:13:48.774Z,83.85
2018-06-16T21:15:24.844Z,83.75